Time;durP1;ratioP1;P1;durP2;ratioP2;P2;SDS_P1;SDS_P2;PMS_P1;PMS_P2;Temp;Humidity;BMP_temperature;BMP_pressure;BME280_temperature;BME280_humidity;BME280_pressure;Samples;Min_cycle;Max_cycle;Signal;HPM_P1;HPM_P2
2023/06/29 00:03:05;;;;;;;;;46.25;37.25;;;;;22.81;75.31;101465.19;4996978;28;45367;-77
2023/06/29 00:05:35;;;;;;;;;53.00;38.00;;;;;22.80;76.60;101460.81;4995607;28;45496;-77
2023/06/29 00:08:24;;;;;;;;;51.25;43.50;;;;;22.52;76.10;101426.41;5031306;28;45265;-77
2023/06/29 00:11:03;;;;;;;;;48.00;39.25;;;;;22.73;76.49;101446.16;5039880;28;46333;-77
2023/06/29 00:14:00;;;;;;;;;50.00;39.50;;;;;22.91;76.65;101471.50;5037869;28;45456;-77
2023/06/29 00:16:44;;;;;;;;;50.50;41.25;;;;;22.59;77.47;101428.44;5053065;28;45290;-77
2023/06/29 00:19:35;;;;;;;;;51.75;44.50;;;;;22.56;76.50;101417.06;5037187;28;45474;-76
2023/06/29 00:28:26;;;;;;;;;48.75;40.50;;;;;22.64;76.92;101441.53;5019492;28;45557;-77
2023/06/29 00:31:32;;;;;;;;;;;;;;;;;;;;;
2023/06/29 00:37:46;;;;;;;;;;;;;;;;;;;;;
2023/06/29 00:40:56;;;;;;;;;49.75;42.25;;;;;22.52;78.43;101415.63;5035980;28;69295;-77
2023/06/29 00:44:03;;;;;;;;;61.25;51.50;;;;;22.98;78.58;101467.25;5032489;28;45230;-76
2023/06/29 00:46:53;;;;;;;;;74.00;55.00;;;;;22.61;78.26;101420.22;5031528;28;47086;-77
2023/06/29 00:55:50;;;;;;;;;83.75;73.75;;;;;22.63;78.85;101412.84;5026490;28;45324;-77
2023/06/29 00:58:48;;;;;;;;;93.50;85.75;;;;;22.99;79.20;101460.88;5038431;28;46204;-77
2023/06/29 01:01:27;;;;;;;;;73.50;63.50;;;;;22.56;79.29;101401.75;5029775;28;45484;-77
2023/06/29 01:04:06;;;;;;;;;75.00;64.75;;;;;22.44;79.63;101372.31;5018550;28;45432;-78
2023/06/29 01:07:17;;;;;;;;;;;;;;;;;;;;;
2023/06/29 01:10:08;;;;;;;;;71.50;58.25;;;;;22.41;80.83;101381.53;5029051;28;75797;-77
2023/06/29 01:13:10;;;;;;;;;;;;;;;;;;;;;
2023/06/29 01:15:50;;;;;;;;;58.25;48.50;;;;;22.88;79.50;101460.97;5017025;28;69911;-77
2023/06/29 01:18:26;;;;;;;;;61.75;51.75;;;;;22.27;80.02;101368.41;5042255;28;45523;-77
2023/06/29 01:21:12;;;;;;;;;60.25;49.75;;;;;22.49;79.35;101386.25;5030098;28;45293;-76
2023/06/29 01:23:55;;;;;;;;;56.00;47.25;;;;;22.32;81.26;101382.31;5041675;28;45335;-76
2023/06/29 01:26:22;;;;;;;;;53.75;45.50;;;;;22.67;81.85;101428.69;5019404;28;45418;-77
2023/06/29 01:29:11;;;;;;;;;50.50;43.50;;;;;22.35;81.91;101378.53;5025736;28;45539;-77
2023/06/29 01:32:29;;;;;;;;;;;;;;;;;;;;;
2023/06/29 01:34:58;;;;;;;;;51.25;43.75;;;;;22.24;83.05;101380.31;5035503;28;72563;-77
2023/06/29 01:37:43;;;;;;;;;50.25;43.50;;;;;22.75;83.12;101468.44;5034101;28;45462;-77
2023/06/29 01:40:23;;;;;;;;;57.75;46.75;;;;;22.37;82.26;101392.72;5036425;28;45456;-77
2023/06/29 01:42:56;;;;;;;;;52.00;44.25;;;;;22.25;83.60;101371.22;5015899;28;45650;-78
2023/06/29 01:45:57;;;;;;;;;54.25;44.75;;;;;22.76;82.46;101459.38;5035485;28;45589;-77
2023/06/29 01:48:35;;;;;;;;;60.50;50.75;;;;;22.43;82.66;101401.13;5020564;28;45436;-77
2023/06/29 01:51:07;;;;;;;;;61.50;50.50;;;;;22.53;81.41;101411.94;5020268;28;45354;-77
2023/06/29 01:54:44;;;;;;;;;;;;;;;;;;;;;
2023/06/29 01:57:08;;;;;;;;;;;;;;;;;;;;;
2023/06/29 01:59:59;;;;;;;;;63.25;51.50;;;;;22.52;85.39;101412.94;5036334;28;67286;-78
2023/06/29 02:03:14;;;;;;;;;65.25;51.50;;;;;22.48;87.37;101404.25;5016800;28;45589;-77
2023/06/29 02:06:14;;;;;;;;;61.50;50.75;;;;;22.29;84.40;101371.81;4990339;28;45675;-78
2023/06/29 02:11:57;;;;;;;;;71.25;53.75;;;;;22.10;84.16;101359.09;5036551;28;45211;-78
2023/06/29 02:14:25;;;;;;;;;53.75;45.00;;;;;22.60;83.68;101437.41;5035378;28;45512;-77
2023/06/29 02:17:17;;;;;;;;;60.75;49.00;;;;;22.10;85.04;101356.41;5035717;28;45456;-78
2023/06/29 02:20:23;;;;;;;;;57.75;49.25;;;;;22.61;84.42;101428.31;5031729;28;45381;-77
2023/06/29 02:23:12;;;;;;;;;53.50;42.75;;;;;22.62;84.12;101435.41;5038788;28;45400;-77
2023/06/29 02:25:59;;;;;;;;;54.00;41.50;;;;;22.33;83.60;101386.72;5011075;28;45366;-78
2023/06/29 02:29:09;;;;;;;;;55.25;43.75;;;;;22.47;83.33;101413.34;5023612;28;45563;-77
2023/06/29 02:31:41;;;;;;;;;50.75;42.75;;;;;21.92;85.48;101325.66;5038149;28;45245;-77
2023/06/29 02:34:51;;;;;;;;;55.25;47.00;;;;;22.47;85.22;101409.78;5018706;28;45325;-77
2023/06/29 02:37:47;;;;;;;;;53.00;43.00;;;;;21.98;85.03;101333.22;5015872;28;45322;-77
2023/06/29 02:40:28;;;;;;;;;39.25;35.00;;;;;21.90;86.56;101316.84;5018830;28;47372;-77
2023/06/29 02:43:10;;;;;;;;;38.50;36.50;;;;;22.52;84.57;101421.00;5002332;28;45355;-77
2023/06/29 02:46:07;;;;;;;;;34.75;33.25;;;;;21.99;85.38;101339.47;4999915;28;45565;-77
2023/06/29 02:48:50;;;;;;;;;32.00;27.75;;;;;22.50;84.95;101429.25;4998693;28;45346;-77
2023/06/29 02:51:40;;;;;;;;;38.75;36.75;;;;;22.40;87.14;101404.09;5000326;28;45826;-77
2023/06/29 02:54:19;;;;;;;;;32.50;31.75;;;;;22.45;85.38;101414.44;5016726;28;45432;-77
2023/06/29 02:57:12;;;;;;;;;15.75;15.75;;;;;22.29;84.85;101394.22;4998296;28;45541;-77
2023/06/29 03:00:14;;;;;;;;;29.00;27.50;;;;;22.31;86.02;101391.41;5002393;28;46351;-77
2023/06/29 03:03:14;;;;;;;;;23.50;20.25;;;;;21.99;85.62;101348.38;4995756;28;46651;-78
2023/06/29 03:06:16;;;;;;;;;24.00;23.75;;;;;22.44;86.07;101415.47;5006739;28;45459;-77
2023/06/29 03:09:13;;;;;;;;;19.25;16.75;;;;;21.92;87.29;101339.13;5018687;28;45366;-78
2023/06/29 03:15:14;;;;;;;;;15.75;15.75;;;;;22.38;86.17;101402.50;5012107;28;45573;-78
2023/06/29 03:17:52;;;;;;;;;21.67;17.00;;;;;22.35;85.74;101395.53;4998180;28;45436;-78
2023/06/29 03:20:39;;;;;;;;;15.33;15.00;;;;;21.85;86.44;101321.75;4999831;28;45586;-78
2023/06/29 03:26:25;;;;;;;;;15.25;9.50;;;;;21.91;85.83;101342.81;4957240;28;46782;-77
2023/06/29 03:29:07;;;;;;;;;13.25;13.25;;;;;22.36;86.29;101405.34;5000920;28;45445;-78
2023/06/29 03:31:33;;;;;;;;;11.25;11.25;;;;;21.99;88.09;101350.25;4995516;28;45537;-78
2023/06/29 03:34:29;;;;;;;;;10.67;10.67;;;;;22.23;87.43;101392.06;4998803;28;45475;-78
2023/06/29 03:36:55;;;;;;;;;11.33;11.33;;;;;21.91;86.44;101352.72;5004981;28;45778;-77
2023/06/29 03:39:20;;;;;;;;;9.33;8.67;;;;;21.94;87.58;101339.84;5020247;28;45290;-78
2023/06/29 03:41:46;;;;;;;;;13.00;8.67;;;;;22.02;87.70;101352.66;5019991;28;45504;-77
2023/06/29 03:44:11;;;;;;;;;7.00;7.00;;;;;22.23;87.50;101391.22;5020446;28;53055;-77
2023/06/29 03:46:36;;;;;;;;;10.25;10.25;;;;;22.23;88.52;101397.47;5017386;28;51268;-77
2023/06/29 03:49:04;;;;;;;;;14.00;14.00;;;;;22.19;88.22;101398.69;5023117;28;45515;-78
2023/06/29 03:51:38;;;;;;;;;11.00;11.00;;;;;22.25;88.93;101406.25;5019461;28;45532;-78
2023/06/29 03:54:29;;;;;;;;;13.25;13.25;;;;;22.11;89.68;101384.19;5009944;28;45580;-78
2023/06/29 03:57:18;;;;;;;;;;;;;;;;;;;;;
2023/06/29 04:00:09;;;;;;;;;24.67;19.00;;;;;21.88;88.29;101348.44;5010675;28;71396;-77
2023/06/29 04:03:19;;;;;;;;;;;;;;;;;;;;;
2023/06/29 04:06:11;;;;;;;;;20.33;12.33;;;;;21.68;89.40;101307.06;5004485;28;73123;-77
2023/06/29 04:09:01;;;;;;;;;7.00;7.00;;;;;22.15;89.82;101386.47;5019113;28;45409;-78
2023/06/29 04:15:20;;;;;;;;;10.00;10.00;;;;;21.62;90.19;101295.94;5019900;28;45485;-78
2023/06/29 04:20:51;;;;;;;;;14.67;14.33;;;;;22.07;93.18;101386.28;5016380;28;45443;-78
2023/06/29 04:23:30;;;;;;;;;14.25;14.25;;;;;21.80;91.87;101321.28;5027388;28;45350;-78
2023/06/29 04:26:13;;;;;;;;;17.67;17.67;;;;;21.89;92.62;101335.81;5018923;28;45397;-78
2023/06/29 04:28:57;;;;;;;;;8.00;8.00;;;;;21.70;92.94;101312.28;5024834;28;45547;-77
2023/06/29 04:31:33;;;;;;;;;8.00;8.00;;;;;21.58;92.38;101278.34;5016461;28;46055;-77
2023/06/29 04:34:10;;;;;;;;;12.67;12.67;;;;;21.57;92.37;101298.16;5022874;28;45496;-78
2023/06/29 04:37:04;;;;;;;;;13.33;13.33;;;;;21.76;94.21;101328.78;5018628;28;45531;-78
2023/06/29 04:39:45;;;;;;;;;15.00;15.00;;;;;22.11;93.56;101381.50;5031048;28;45584;-78
2023/06/29 04:42:25;;;;;;;;;16.75;16.75;;;;;21.56;92.67;101277.63;5016588;28;45625;-77
2023/06/29 04:45:34;;;;;;;;;;;;;;;;;;;;;
2023/06/29 04:48:40;;;;;;;;;14.33;13.00;;;;;21.62;93.91;101299.50;5029975;28;69305;-77
2023/06/29 04:54:19;;;;;;;;;13.50;13.50;;;;;21.62;95.57;101290.56;5024317;28;46837;-78
2023/06/29 04:57:07;;;;;;;;;12.67;12.67;;;;;21.68;96.83;101312.44;5014828;28;45590;-78
2023/06/29 04:59:52;;;;;;;;;11.67;11.67;;;;;21.54;97.09;101291.22;5030320;28;45436;-78
2023/06/29 05:02:28;;;;;;;;;15.67;15.67;;;;;21.62;95.11;101314.78;5032714;28;46302;-78
2023/06/29 05:05:32;;;;;;;;;;;;;;;;;;;;;
2023/06/29 05:08:06;;;;;;;;;12.67;12.67;;;;;21.54;95.31;101304.66;5006397;28;72932;-78
2023/06/29 05:10:59;;;;;;;;;14.00;14.00;;;;;21.91;99.61;101368.88;5018156;28;45409;-78
2023/06/29 05:13:36;;;;;;;;;12.00;12.00;;;;;21.58;97.44;101316.03;5024683;28;45324;-78
2023/06/29 05:16:30;;;;;;;;;14.00;12.33;;;;;22.06;96.16;101378.34;5016519;28;45635;-78
2023/06/29 05:19:19;;;;;;;;;10.33;10.33;;;;;21.93;96.47;101358.81;5009036;28;45569;-77
2023/06/29 05:25:14;;;;;;;;;;;;;;;;;;;;;
2023/06/29 05:28:09;;;;;;;;;12.33;12.33;;;;;21.85;96.58;101348.69;5035279;28;74785;-77
2023/06/29 05:30:52;;;;;;;;;10.33;10.33;;;;;22.06;97.73;101376.50;5016524;28;45358;-77
2023/06/29 05:33:24;;;;;;;;;16.67;14.33;;;;;21.63;95.95;101306.56;5038711;28;45286;-77
2023/06/29 05:36:12;;;;;;;;;14.00;14.00;;;;;21.65;96.19;101312.69;4996316;28;45840;-78
2023/06/29 05:39:05;;;;;;;;;13.33;13.33;;;;;22.20;95.03;101399.56;5003238;28;45703;-78
2023/06/29 05:42:23;;;;;;;;;13.33;13.33;;;;;22.22;96.47;101395.75;5017325;28;45383;-78
2023/06/29 05:45:25;;;;;;;;;19.67;19.67;;;;;21.99;94.88;101364.53;4963450;28;45628;-78
2023/06/29 05:48:15;;;;;;;;;22.33;19.33;;;;;21.81;95.72;101313.09;4928337;28;45581;-78
2023/06/29 05:51:11;;;;;;;;;13.00;13.00;;;;;22.31;96.10;101394.09;4919346;28;46737;-78
2023/06/29 05:53:41;;;;;;;;;16.00;16.00;;;;;21.96;98.05;101323.53;4951210;28;45566;-77
2023/06/29 05:56:11;;;;;;;;;12.50;12.50;;;;;22.35;96.43;101392.84;4993352;28;45497;-77
2023/06/29 05:58:41;;;;;;;;;13.00;12.67;;;;;21.85;93.84;101294.84;5003822;28;45523;-78
2023/06/29 06:01:12;;;;;;;;;19.67;19.67;;;;;21.85;93.57;101297.53;5014027;28;45598;-78
2023/06/29 06:03:47;;;;;;;;;23.00;20.67;;;;;22.40;93.67;101373.56;5011964;28;45290;-77
2023/06/29 06:06:25;;;;;;;;;27.00;27.00;;;;;22.35;94.86;101359.66;5016171;28;45504;-78
2023/06/29 06:12:19;;;;;;;;;17.33;17.33;;;;;22.02;93.98;101298.78;4995657;28;46347;-78
2023/06/29 06:15:27;;;;;;;;;;;;;;;;;;;;;
2023/06/29 06:18:01;;;;;;;;;9.33;9.33;;;;;22.38;94.27;101362.09;5001037;28;68587;-78
2023/06/29 06:20:56;;;;;;;;;13.33;13.33;;;;;22.65;94.85;101384.75;4999462;28;45895;-78
2023/06/29 06:23:55;;;;;;;;;17.00;17.00;;;;;22.37;96.96;101339.66;5011639;28;46595;-78
2023/06/29 06:26:41;;;;;;;;;;;;;;;;;;;;;
2023/06/29 06:29:19;;;;;;;;;12.33;10.33;;;;;22.41;92.24;101354.59;5014205;28;68825;-78
2023/06/29 06:36:08;;;;;;;;;;;;;;;;;;;;;
2023/06/29 06:38:44;;;;;;;;;17.33;14.33;;;;;22.17;91.57;101335.16;5019353;28;71572;-78
2023/06/29 06:41:31;;;;;;;;;20.00;19.00;;;;;22.60;93.07;101411.28;5008764;28;45514;-77
2023/06/29 06:44:01;;;;;;;;;23.25;15.50;;;;;22.48;95.04;101385.38;5017831;28;45736;-80
2023/06/29 06:47:13;;;;;;;;;16.00;16.00;;;;;22.33;91.43;101343.59;5032373;28;47036;-80
2023/06/29 06:50:17;;;;;;;;;34.33;29.67;;;;;22.17;92.95;101316.28;5007119;28;45576;-79
2023/06/29 06:52:57;;;;;;;;;21.00;18.00;;;;;22.54;93.04;101365.13;5014041;28;45842;-80
2023/06/29 06:55:51;;;;;;;;;23.67;19.33;;;;;22.61;92.49;101387.88;5014180;28;45594;-80
2023/06/29 06:58:33;;;;;;;;;18.67;18.33;;;;;22.23;92.73;101313.91;4996203;28;47621;-80
2023/06/29 07:01:13;;;;;;;;;;;;;;;;;;;;;
2023/06/29 07:06:58;;;;;;;;;26.33;22.67;;;;;22.41;91.21;101299.81;5027219;28;45465;-80
2023/06/29 07:09:24;;;;;;;;;20.75;20.50;;;;;22.54;94.03;101314.78;5013782;28;45716;-79
2023/06/29 07:12:00;;;;;;;;;20.50;18.75;;;;;22.79;91.63;101365.53;5003820;28;45426;-80
2023/06/29 07:14:58;;;;;;;;;1.67;1.67;;;;;22.72;87.96;101340.09;5012612;28;45470;-80
2023/06/29 07:17:36;;;;;;;;;22.75;19.00;;;;;22.63;88.55;101315.78;5000761;28;46460;-80
2023/06/29 07:20:36;;;;;;;;;18.67;18.67;;;;;23.12;90.68;101399.44;5015781;28;45546;-80
2023/06/29 07:23:02;;;;;;;;;11.00;11.00;;;;;22.54;89.97;101289.66;5001614;28;45552;-80
2023/06/29 07:26:16;;;;;;;;;22.75;14.00;;;;;22.77;88.16;101331.63;5028120;28;45450;-80
2023/06/29 07:32:33;;;;;;;;;50.75;39.50;;;;;22.65;88.05;101309.25;5016094;28;45615;-79
2023/06/29 07:35:37;;;;;;;;;13.00;13.00;;;;;23.21;87.81;101401.28;5019809;28;45384;-79
2023/06/29 07:41:53;;;;;;;;;18.67;18.67;;;;;22.69;89.42;101278.38;4985506;28;45548;-79
2023/06/29 07:44:34;;;;;;;;;18.00;18.00;;;;;23.40;89.95;101381.59;4983980;28;45709;-79
2023/06/29 07:47:33;;;;;;;;;20.33;20.33;;;;;23.48;88.07;101381.75;5033631;28;45474;-79
2023/06/29 07:53:50;;;;;;;;;22.33;17.00;;;;;23.08;88.57;101292.75;5035280;28;45743;-79
2023/06/29 07:56:22;;;;;;;;;19.00;16.67;;;;;23.62;88.55;101358.88;5038503;28;45696;-79
2023/06/29 07:59:27;;;;;;;;;;;;;;;;;;;;;
2023/06/29 08:02:45;;;;;;;;;;;;;;;;;;;;;
2023/06/29 08:08:52;;;;;;;;;11.67;9.67;;;;;23.72;84.84;101271.44;5025585;28;45456;-78
2023/06/29 08:11:46;;;;;;;;;;;;;;;;;;;;;
2023/06/29 08:14:36;;;;;;;;;;;;;;;;;;;;;
2023/06/29 08:23:26;;;;;;;;;18.67;18.67;;;;;24.31;78.24;101295.44;5028606;28;45571;-78
2023/06/29 08:26:27;;;;;;;;;;;;;;;;;;;;;
2023/06/29 08:29:17;;;;;;;;;4.33;4.33;;;;;24.76;78.05;101365.00;5003599;28;72561;-78
2023/06/29 08:35:42;;;;;;;;;16.33;15.00;;;;;24.79;78.22;101353.88;4976579;28;46999;-78
2023/06/29 08:38:49;;;;;;;;;;;;;;;;;;;;;
2023/06/29 08:41:29;;;;;;;;;13.67;13.67;;;;;25.03;78.88;101358.78;4991100;28;72955;-78
2023/06/29 08:44:22;;;;;;;;;18.33;17.00;;;;;25.09;79.96;101367.16;4972063;28;48266;-78
2023/06/29 08:47:29;;;;;;;;;;;;;;;;;;;;;
2023/06/29 08:53:28;;;;;;;;;21.67;20.67;;;;;24.78;75.06;101274.56;4980708;28;46456;-78
2023/06/29 08:59:22;;;;;;;;;;;;;;;;;;;;;
2023/06/29 09:02:18;;;;;;;;;21.67;21.33;;;;;25.37;73.67;101328.16;4972484;28;69066;-78
2023/06/29 09:05:08;;;;;;;;;23.33;22.33;;;;;25.42;71.99;101307.91;5039914;28;45646;-78
2023/06/29 09:07:41;;;;;;;;;12.00;7.67;;;;;25.51;73.84;101313.25;5013572;28;46926;-78
2023/06/29 09:10:31;;;;;;;;;14.00;13.00;;;;;25.75;70.36;101321.56;5013203;28;45736;-81
2023/06/29 09:13:42;;;;;;;;;19.33;19.00;;;;;25.69;69.28;101264.44;5015215;28;45564;-77
2023/06/29 09:16:42;;;;;;;;;43.33;34.33;;;;;25.93;68.30;101318.84;5011862;28;45667;-77
2023/06/29 09:22:22;;;;;;;;;20.00;20.00;;;;;25.93;73.66;101337.81;5038351;28;45451;-77
2023/06/29 09:25:15;;;;;;;;;;;;;;;;;;;;;
2023/06/29 09:28:31;;;;;;;;;16.33;16.33;;;;;25.97;73.16;101338.34;5034052;28;71672;-79
2023/06/29 09:31:32;;;;;;;;;5.00;5.00;;;;;25.68;70.22;101281.72;5014147;28;46500;-79
2023/06/29 09:34:28;;;;;;;;;42.25;34.75;;;;;26.21;73.55;101346.69;5012251;28;45524;-78
2023/06/29 09:40:43;;;;;;;;;14.33;14.33;;;;;26.40;68.72;101347.31;5021051;28;46955;-79
2023/06/29 09:43:43;;;;;;;;;41.00;33.67;;;;;26.32;66.80;101306.56;5010148;28;46422;-79
2023/06/29 09:46:18;;;;;;;;;32.67;29.00;;;;;26.43;65.39;101351.56;4994864;28;45586;-79
2023/06/29 09:49:44;;;;;;;;;41.00;36.00;;;;;26.02;63.53;101277.19;5012259;28;45504;-80
2023/06/29 09:52:16;;;;;;;;;27.67;21.33;;;;;25.96;63.17;101275.13;5002542;28;45530;-78
2023/06/29 09:58:18;;;;;;;;;;;;;;;;;;;;;
2023/06/29 10:01:16;;;;;;;;;;;;;;;;;;;;;
2023/06/29 10:04:06;;;;;;;;;26.00;24.00;;;;;26.47;63.87;101295.13;5022118;28;71549;-80
2023/06/29 10:07:08;;;;;;;;;5.67;5.00;;;;;26.70;62.25;101309.78;5009098;28;45628;-79
2023/06/29 10:10:04;;;;;;;;;18.00;14.33;;;;;26.63;60.92;101282.47;5031813;28;45361;-80
2023/06/29 10:13:15;;;;;;;;;;;;;;;;;;;;;
2023/06/29 10:16:43;;;;;;;;;20.33;20.33;;;;;26.86;63.62;101307.16;5021456;28;72498;-80
2023/06/29 10:19:58;;;;;;;;;50.25;35.25;;;;;27.17;62.80;101362.56;5013572;28;47954;-79
2023/06/29 10:22:42;;;;;;;;;4.67;4.33;;;;;26.65;61.96;101304.00;4995407;28;45263;-80
2023/06/29 10:32:33;;;;;;;;;39.33;34.33;;;;;27.04;65.22;101348.59;5020083;28;45595;-79
2023/06/29 10:36:01;;;;;;;;;45.75;36.50;;;;;27.12;64.31;101347.78;5017168;28;45531;-80
2023/06/29 10:38:55;;;;;;;;;27.00;14.67;;;;;27.16;63.65;101349.16;5000924;28;45493;-79
2023/06/29 10:41:53;;;;;;;;;27.75;27.00;;;;;27.01;62.45;101291.91;5001984;28;45537;-80
2023/06/29 10:45:07;;;;;;;;;38.75;32.00;;;;;26.93;61.55;101268.31;4997752;28;46407;-80
2023/06/29 10:48:12;;;;;;;;;17.50;17.00;;;;;27.37;58.98;101306.91;5006453;28;45489;-79
2023/06/29 10:51:34;;;;;;;;;37.00;34.00;;;;;27.67;62.94;101286.38;5019590;28;45599;-79
2023/06/29 10:54:37;;;;;;;;;;;;;;;;;;;;;
2023/06/29 10:57:18;;;;;;;;;43.00;35.00;;;;;28.32;57.40;101314.34;4976939;28;74713;-79
2023/06/29 10:59:54;;;;;;;;;28.50;22.25;;;;;28.33;58.64;101335.09;5003676;28;45517;-79
2023/06/29 11:02:32;;;;;;;;;49.00;37.75;;;;;28.10;59.92;101243.50;5011320;28;45346;-79
2023/06/29 11:05:36;;;;;;;;;;;;;;;;;;;;;
2023/06/29 11:08:19;;;;;;;;;37.67;31.00;;;;;28.94;54.41;101304.38;5009138;28;76308;-80
2023/06/29 11:10:51;;;;;;;;;15.75;14.75;;;;;28.54;54.80;101239.22;5022453;28;45466;-80
2023/06/29 11:13:45;;;;;;;;;32.00;27.25;;;;;28.36;57.32;101236.78;5008227;28;45472;-79
2023/06/29 11:22:59;;;;;;;;;36.00;33.25;;;;;28.20;56.87;101298.56;5012259;28;45573;-80
2023/06/29 11:26:02;;;;;;;;;46.50;37.00;;;;;27.56;57.26;101226.94;5003225;28;45566;-80
2023/06/29 11:28:59;;;;;;;;;19.67;19.67;;;;;27.54;57.56;101274.34;5004452;28;45619;-80
2023/06/29 11:34:38;;;;;;;;;40.25;33.75;;;;;26.96;59.08;101266.28;5009746;28;45420;-79
2023/06/29 11:37:28;;;;;;;;;;;;;;;;;;;;;
2023/06/29 11:40:07;;;;;;;;;17.00;17.00;;;;;27.15;58.57;101314.84;5033230;28;71520;-79
2023/06/29 11:42:44;;;;;;;;;52.00;41.00;;;;;26.97;59.57;101273.41;5040951;28;46292;-78
2023/06/29 11:45:29;;;;;;;;;22.00;16.50;;;;;27.16;60.59;101309.25;5033633;28;45424;-79
2023/06/29 11:48:02;;;;;;;;;44.00;38.00;;;;;26.83;57.71;101269.50;5006089;28;45533;-80
2023/06/29 11:50:40;;;;;;;;;25.00;25.00;;;;;26.93;57.63;101278.31;5027646;28;45655;-80
2023/06/29 11:53:18;;;;;;;;;52.25;41.25;;;;;26.96;60.76;101258.16;5038258;28;45487;-79
2023/06/29 11:59:20;;;;;;;;;35.50;30.00;;;;;27.58;60.21;101316.47;5026170;28;45747;-79
2023/06/29 12:08:41;;;;;;;;;39.67;34.67;;;;;28.77;54.22;101258.34;5012213;28;45967;-79
2023/06/29 12:11:55;;;;;;;;;37.67;32.67;;;;;28.64;54.19;101241.72;5016418;28;46365;-80
2023/06/29 12:18:05;;;;;;;;;27.33;24.33;;;;;29.06;51.27;101220.38;5029684;28;46352;-79
2023/06/29 12:21:12;;;;;;;;;24.50;17.25;;;;;29.77;52.59;101290.84;5016780;28;45734;-79
2023/06/29 12:26:42;;;;;;;;;;;;;;;;;;;;;
2023/06/29 12:29:32;;;;;;;;;23.33;22.00;;;;;30.02;49.36;101299.63;5031924;28;75253;-79
2023/06/29 12:32:02;;;;;;;;;38.67;33.67;;;;;29.72;52.36;101267.84;5005056;28;45575;-80
2023/06/29 12:34:52;;;;;;;;;37.33;33.67;;;;;29.63;51.96;101252.63;5017738;28;45259;-79
2023/06/29 12:37:53;;;;;;;;;17.33;16.67;;;;;30.03;48.13;101278.66;4997344;28;45455;-79
2023/06/29 12:40:34;;;;;;;;;32.33;31.00;;;;;30.03;47.86;101202.28;5002716;28;45532;-79
2023/06/29 12:43:15;;;;;;;;;;;;;;;;;;;;;
2023/06/29 12:46:03;;;;;;;;;;;;;;;;;;;;;
2023/06/29 12:48:35;;;;;;;;;8.33;6.67;;;;;30.62;44.34;101239.41;5007142;28;72358;-79
2023/06/29 12:54:59;;;;;;;;;;;;;;;;;;;;;
2023/06/29 12:57:34;;;;;;;;;39.67;33.00;;;;;29.24;48.11;101253.63;4918689;28;69176;-79
2023/06/29 13:00:42;;;;;;;;;8.33;8.33;;;;;28.95;49.33;101232.56;4998392;28;45871;-80
2023/06/29 13:03:32;;;;;;;;;15.00;14.33;;;;;28.82;49.34;101224.13;5015419;28;46558;-80
2023/06/29 13:06:42;;;;;;;;;;;;;;;;;;;;;
2023/06/29 13:09:56;;;;;;;;;;;;;;;;;;;;;
2023/06/29 13:13:30;;;;;;;;;6.33;6.33;;;;;29.94;47.31;101275.19;4986566;28;45690;-79
2023/06/29 13:16:15;;;;;;;;;18.00;14.33;;;;;29.90;45.21;101222.88;5015883;28;45469;-80
2023/06/29 13:18:48;;;;;;;;;8.00;8.00;;;;;29.80;45.75;101219.56;4997343;28;45718;-79
2023/06/29 13:21:25;;;;;;;;;31.67;30.67;;;;;29.28;46.75;101184.13;5019157;28;45456;-80
2023/06/29 13:24:44;;;;;;;;;33.25;30.00;;;;;29.45;47.30;101277.47;5012582;28;45479;-80
2023/06/29 13:27:54;;;;;;;;;5.00;5.00;;;;;28.52;48.74;101195.03;5010856;28;47654;-79
2023/06/29 13:30:48;;;;;;;;;;;;;;;;;;;;;
2023/06/29 13:33:34;;;;;;;;;20.67;17.67;;;;;27.32;50.95;101183.47;5013221;28;68826;-79
2023/06/29 13:36:07;;;;;;;;;25.00;25.00;;;;;27.28;52.37;101236.44;5022541;28;45433;-79
2023/06/29 13:39:07;;;;;;;;;23.67;21.33;;;;;26.78;53.85;101196.66;5031009;28;46692;-79
2023/06/29 13:41:49;;;;;;;;;23.33;21.33;;;;;26.68;53.98;101212.25;5022783;28;45341;-80
2023/06/29 13:44:36;;;;;;;;;;;;;;;;;;;;;
2023/06/29 13:47:31;;;;;;;;;5.67;5.67;;;;;26.80;49.78;101292.31;5018422;28;72081;-79
2023/06/29 13:50:18;;;;;;;;;0.00;0.00;;;;;26.42;48.33;101246.75;5036226;28;46538;-79
2023/06/29 13:57:10;;;;;;;;;;;;;;;;;;;;;
2023/06/29 14:00:03;;;;;;;;;0.00;0.00;;;;;26.95;48.59;101216.56;5029568;28;73241;-79
2023/06/29 14:03:30;;;;;;;;;;;;;;;;;;;;;
2023/06/29 14:06:34;;;;;;;;;5.00;2.67;;;;;28.53;46.57;101294.72;5030718;28;72892;-79
2023/06/29 14:09:12;;;;;;;;;20.00;16.33;;;;;28.42;45.96;101243.38;5012102;28;45563;-79
2023/06/29 14:15:46;;;;;;;;;;;;;;;;;;;;;
2023/06/29 14:24:36;;;;;;;;;;;;;;;;;;;;;
2023/06/29 14:27:36;;;;;;;;;;;;;;;;;;;;;
2023/06/29 14:41:06;;;;;;;;;;;;;;;;;;;;;
2023/06/29 14:51:50;;;;;;;;;11.00;11.00;;;;;26.68;51.82;101322.66;5038901;28;45436;-79
2023/06/29 14:54:48;;;;;;;;;;;;;;;;;;;;;
2023/06/29 14:57:32;;;;;;;;;1.33;1.33;;;;;26.37;54.59;101333.22;4984198;28;72595;-79
2023/06/29 15:06:53;;;;;;;;;;;;;;;;;;;;;
2023/06/29 15:10:00;;;;;;;;;3.00;0.00;;;;;26.06;57.07;101307.56;5028574;28;73222;-78
2023/06/29 15:15:40;;;;;;;;;4.67;4.33;;;;;26.22;58.73;101313.97;4996874;28;45451;-79
2023/06/29 15:22:24;;;;;;;;;22.67;19.33;;;;;25.75;60.98;101274.69;5038332;28;45512;-79
2023/06/29 15:28:24;;;;;;;;;17.67;17.33;;;;;25.04;61.82;101244.06;5027006;28;46024;-78
2023/06/29 15:31:24;;;;;;;;;0.00;0.00;;;;;25.27;62.28;101313.00;5029255;28;46315;-78
2023/06/29 15:33:56;;;;;;;;;0.00;0.00;;;;;25.20;63.29;101345.25;5039180;28;45503;-79
2023/06/29 15:39:46;;;;;;;;;0.50;0.00;;;;;24.21;65.66;101245.97;5024713;28;45298;-79
2023/06/29 15:43:16;;;;;;;;;;;;;;;;;;;;;
2023/06/29 15:49:03;;;;;;;;;2.67;2.00;;;;;23.95;66.87;101260.28;5029842;28;45534;-79
2023/06/29 15:52:02;;;;;;;;;0.00;0.00;;;;;23.94;66.91;101264.84;4970627;28;45510;-80
2023/06/29 15:54:55;;;;;;;;;13.00;11.00;;;;;23.96;66.68;101254.72;4961556;28;47140;-79
2023/06/29 16:00:42;;;;;;;;;3.67;3.67;;;;;24.20;67.54;101321.81;4977377;28;45588;-80
2023/06/29 16:06:32;;;;;;;;;11.67;9.67;;;;;24.18;67.89;101342.75;4976740;28;46114;-80
2023/06/29 16:09:37;;;;;;;;;;;;;;;;;;;;;
2023/06/29 16:15:32;;;;;;;;;11.00;11.00;;;;;23.53;67.46;101244.47;4926674;28;45582;-79
2023/06/29 16:18:23;;;;;;;;;2.00;0.33;;;;;23.68;68.60;101266.47;4997320;28;46725;-79
2023/06/29 16:21:14;;;;;;;;;0.33;0.33;;;;;23.43;68.57;101240.91;4997422;28;45538;-79
2023/06/29 16:23:44;;;;;;;;;0.00;0.00;;;;;23.59;69.52;101259.25;5015914;28;45394;-79
2023/06/29 16:26:22;;;;;;;;;10.67;9.33;;;;;23.57;71.37;101255.81;5004396;28;45476;-79
2023/06/29 16:28:51;;;;;;;;;3.33;3.33;;;;;23.63;70.13;101266.91;5000953;28;45823;-79
2023/06/29 16:31:36;;;;;;;;;3.00;3.00;;;;;23.69;70.27;101260.09;5003252;28;45439;-79
2023/06/29 16:34:13;;;;;;;;;10.67;10.67;;;;;23.63;69.56;101252.53;5016565;28;45354;-79
2023/06/29 16:37:03;;;;;;;;;;;;;;;;;;;;;
2023/06/29 16:39:46;;;;;;;;;8.67;8.67;;;;;23.74;69.35;101298.31;5036836;28;73866;-79
2023/06/29 16:42:14;;;;;;;;;4.00;4.00;;;;;23.45;69.37;101273.19;5036381;28;45708;-79
2023/06/29 16:45:22;;;;;;;;;0.00;0.00;;;;;23.68;67.64;101313.25;5036515;28;45359;-79
2023/06/29 16:51:19;;;;;;;;;0.00;0.00;;;;;23.31;68.45;101252.84;5039607;28;45446;-79
2023/06/29 16:53:51;;;;;;;;;6.33;6.33;;;;;23.94;67.46;101348.59;5019838;28;45821;-79
2023/06/29 16:56:32;;;;;;;;;0.00;0.00;;;;;23.61;65.92;101285.09;5020760;28;45468;-79
2023/06/29 16:59:31;;;;;;;;;1.33;0.33;;;;;23.99;66.19;101332.81;5039136;28;45630;-79
2023/06/29 17:02:02;;;;;;;;;1.00;0.00;;;;;23.55;65.25;101261.38;5005001;28;46917;-79
2023/06/29 17:04:45;;;;;;;;;0.00;0.00;;;;;23.65;65.17;101273.03;5021300;28;45477;-79
2023/06/29 17:07:21;;;;;;;;;1.67;1.00;;;;;23.57;64.53;101245.03;5020822;28;45271;-79
2023/06/29 17:10:07;;;;;;;;;1.00;0.00;;;;;23.67;65.18;101230.50;5020291;28;45570;-79
2023/06/29 17:12:44;;;;;;;;;0.00;0.00;;;;;23.86;64.09;101279.06;5023062;28;45735;-79
2023/06/29 17:15:16;;;;;;;;;7.00;7.00;;;;;24.14;66.27;101320.59;5016549;28;45519;-79
2023/06/29 17:20:36;;;;;;;;;3.00;3.00;;;;;23.84;66.08;101231.59;5022964;28;45554;-79
2023/06/29 17:23:18;;;;;;;;;0.33;0.33;;;;;24.07;64.60;101259.09;5020435;28;46996;-79